createdAt,value
2022-08-10T00:01:34.325Z,58.59
2022-08-10T00:04:01.419Z,58.36
2022-08-10T00:06:28.008Z,58.76
2022-08-10T00:08:54.491Z,59.01
2022-08-10T00:11:20.959Z,59.15
2022-08-10T00:13:47.868Z,59.05
2022-08-10T00:16:14.395Z,59.33
2022-08-10T00:18:40.872Z,59.04
2022-08-10T00:21:09.483Z,59.25
2022-08-10T00:23:37.090Z,59.27
2022-08-10T00:26:04.933Z,59.49
2022-08-10T00:28:31.546Z,59.51
2022-08-10T00:30:58.142Z,59.48
2022-08-10T00:33:24.568Z,59.66
2022-08-10T00:35:51.118Z,59.58
2022-08-10T00:38:17.664Z,59.45
2022-08-10T00:40:44.177Z,59.93
2022-08-10T00:43:10.715Z,59.56
2022-08-10T00:45:37.185Z,59.79
2022-08-10T00:48:04.100Z,59.80
2022-08-10T00:50:30.772Z,60.00
2022-08-10T00:52:57.675Z,60.28
2022-08-10T00:55:24.655Z,60.44
2022-08-10T00:57:55.413Z,60.19
2022-08-10T01:00:23.336Z,60.25
2022-08-10T01:02:49.954Z,60.21
2022-08-10T01:05:16.803Z,60.51
2022-08-10T01:08:20.436Z,60.59
2022-08-10T01:11:02.727Z,60.56
2022-08-10T01:13:38.040Z,60.61
2022-08-10T01:16:46.591Z,60.54
2022-08-10T01:19:35.107Z,60.40
2022-08-10T01:22:30.152Z,60.86
2022-08-10T01:25:14.683Z,60.35
2022-08-10T01:27:59.244Z,60.76
2022-08-10T01:30:30.326Z,60.57
2022-08-10T01:33:06.370Z,60.53
2022-08-10T01:36:02.186Z,60.59
2022-08-10T01:38:34.476Z,60.88
2022-08-10T01:41:14.144Z,60.89
2022-08-10T01:43:50.001Z,61.16
2022-08-10T01:46:19.149Z,61.26
2022-08-10T01:48:53.085Z,61.23
2022-08-10T01:51:30.957Z,61.49
2022-08-10T01:54:12.159Z,61.89
2022-08-10T01:56:43.224Z,61.87
2022-08-10T01:59:15.570Z,61.62
2022-08-10T02:01:50.398Z,61.66
2022-08-10T02:04:20.651Z,61.74
2022-08-10T02:06:52.318Z,61.94
2022-08-10T02:09:31.810Z,61.89
2022-08-10T02:12:08.512Z,61.80
2022-08-10T02:14:40.451Z,61.81
2022-08-10T02:17:59.093Z,61.75
2022-08-10T02:20:04.253Z,61.93
2022-08-10T02:22:36.901Z,62.21
2022-08-10T02:25:07.886Z,62.09
2022-08-10T02:27:35.887Z,62.31
2022-08-10T02:30:05.179Z,62.24
2022-08-10T02:32:38.529Z,61.97
2022-08-10T02:35:21.900Z,62.30
2022-08-10T02:37:52.814Z,62.21
2022-08-10T02:45:15.846Z,62.38
2022-08-10T02:45:17.969Z,62.28
2022-08-10T02:46:18.265Z,62.33
2022-08-10T02:48:53.813Z,62.61
2022-08-10T02:52:07.022Z,62.48
2022-08-10T02:54:24.466Z,62.84
2022-08-10T02:56:56.307Z,62.97
2022-08-10T02:59:39.786Z,62.98
2022-08-10T03:02:10.402Z,62.90
2022-08-10T03:04:54.871Z,62.81
2022-08-10T03:07:42.513Z,63.03
2022-08-10T03:10:16.510Z,62.87
2022-08-10T03:12:45.562Z,63.15
2022-08-10T03:15:15.841Z,62.94
2022-08-10T03:17:57.895Z,62.95
2022-08-10T03:20:39.487Z,63.11
2022-08-10T03:23:12.848Z,63.08
2022-08-10T03:25:39.824Z,63.46
2022-08-10T03:28:07.282Z,63.65
2022-08-10T03:30:34.523Z,63.37
2022-08-10T03:33:04.375Z,63.75
2022-08-10T03:35:31.374Z,63.70
2022-08-10T03:37:59.433Z,63.58
2022-08-10T03:40:45.784Z,63.77
2022-08-10T03:43:20.499Z,63.80
2022-08-10T03:45:56.297Z,64.01
2022-08-10T03:48:33.119Z,64.01
2022-08-10T03:51:13.476Z,63.85
2022-08-10T03:54:02.805Z,63.97
2022-08-10T03:56:31.997Z,63.95
2022-08-10T03:58:59.804Z,63.92
2022-08-10T04:02:44.273Z,64.21
2022-08-10T04:04:17.811Z,64.73
2022-08-10T04:06:47.566Z,64.64
2022-08-10T04:09:18.147Z,64.93
2022-08-10T04:11:46.401Z,64.87
2022-08-10T04:14:47.593Z,65.07
2022-08-10T04:16:59.454Z,64.99
2022-08-10T04:19:29.271Z,64.99
2022-08-10T04:22:10.335Z,65.11
2022-08-10T04:24:39.376Z,65.17
2022-08-10T04:27:06.075Z,65.31
2022-08-10T04:29:32.922Z,65.17
2022-08-10T04:32:02.942Z,65.28
2022-08-10T04:34:34.073Z,65.42
2022-08-10T04:37:08.850Z,65.35
2022-08-10T04:39:35.743Z,65.32
2022-08-10T04:42:03.148Z,65.30
2022-08-10T04:44:29.884Z,65.48
2022-08-10T04:46:58.327Z,65.44
2022-08-10T04:49:55.343Z,65.35
2022-08-10T04:52:13.400Z,65.50
2022-08-10T04:54:39.853Z,65.41
2022-08-10T04:57:06.471Z,65.75
2022-08-10T04:59:33.041Z,65.94
2022-08-10T05:02:22.035Z,66.07
2022-08-10T05:04:46.079Z,66.12
2022-08-10T05:07:16.430Z,66.17
2022-08-10T05:10:03.044Z,66.33
2022-08-10T05:12:37.803Z,66.35
2022-08-10T05:15:09.481Z,66.17
2022-08-10T05:17:36.932Z,66.80
2022-08-10T05:20:08.604Z,66.78
2022-08-10T05:22:41.065Z,67.14
2022-08-10T05:25:10.663Z,67.40
2022-08-10T05:27:37.315Z,67.30
2022-08-10T05:30:05.185Z,67.49
2022-08-10T05:32:56.389Z,67.82
2022-08-10T05:35:20.686Z,67.85
2022-08-10T05:38:09.087Z,68.00
2022-08-10T05:40:35.157Z,68.11
2022-08-10T05:43:01.691Z,68.22
2022-08-10T05:45:28.132Z,68.30
2022-08-10T05:48:57.252Z,68.35
2022-08-10T05:50:41.567Z,68.27
2022-08-10T05:53:59.360Z,68.34
2022-08-10T05:55:55.126Z,68.26
2022-08-10T05:58:22.087Z,68.48
2022-08-10T06:00:55.366Z,68.16
2022-08-10T06:03:29.743Z,68.60
2022-08-10T06:05:58.679Z,68.46
2022-08-10T06:08:28.567Z,68.23
2022-08-10T06:12:28.315Z,68.30
2022-08-10T06:14:12.688Z,68.04
2022-08-10T06:16:42.088Z,68.26
2022-08-10T06:19:10.859Z,68.33
2022-08-10T06:21:41.308Z,68.24
2022-08-10T06:24:30.685Z,67.48
2022-08-10T06:26:58.634Z,67.42
2022-08-10T06:29:28.300Z,67.00
2022-08-10T06:31:56.304Z,67.17
2022-08-10T06:34:27.716Z,67.34
2022-08-10T06:36:57.477Z,66.75
2022-08-10T06:39:39.574Z,66.59
2022-08-10T06:42:17.704Z,66.57
2022-08-10T06:45:06.000Z,66.40
2022-08-10T06:47:46.556Z,66.58
2022-08-10T06:50:45.433Z,66.42
2022-08-10T06:53:21.265Z,66.43
2022-08-10T06:55:59.648Z,66.41
2022-08-10T06:58:32.232Z,65.89
2022-08-10T07:01:02.884Z,65.98
2022-08-10T07:03:36.479Z,65.93
2022-08-10T07:06:05.278Z,65.87
2022-08-10T07:08:33.714Z,65.15
2022-08-10T07:11:02.335Z,64.34
2022-08-10T07:14:15.527Z,64.31
2022-08-10T07:16:19.695Z,64.33
2022-08-10T07:18:48.144Z,64.45
2022-08-10T07:21:15.622Z,64.32
2022-08-10T07:23:58.221Z,63.73
2022-08-10T07:26:28.617Z,63.44
2022-08-10T07:28:55.886Z,63.81
2022-08-10T07:31:29.671Z,62.49
2022-08-10T07:34:11.394Z,62.70
2022-08-10T07:36:40.625Z,63.17
2022-08-10T07:39:08.861Z,62.86
2022-08-10T07:41:41.035Z,62.73
2022-08-10T07:44:09.824Z,62.49
2022-08-10T07:46:40.873Z,62.50
2022-08-10T07:49:15.516Z,62.61
2022-08-10T07:51:54.591Z,62.18
2022-08-10T07:54:25.022Z,62.06
2022-08-10T07:56:57.125Z,61.25
2022-08-10T07:59:35.732Z,61.22
2022-08-10T08:02:04.987Z,60.91
2022-08-10T08:04:33.032Z,60.88
2022-08-10T08:07:03.346Z,59.40
2022-08-10T08:09:31.713Z,59.39
2022-08-10T08:12:00.122Z,58.29
2022-08-10T08:14:27.361Z,58.27
2022-08-10T08:16:55.573Z,58.96
2022-08-10T08:19:35.913Z,59.10
2022-08-10T08:24:06.972Z,58.09
2022-08-10T08:24:57.522Z,58.20
2022-08-10T08:27:26.016Z,57.10
2022-08-10T08:29:53.581Z,58.54
2022-08-10T08:32:23.578Z,58.92
2022-08-10T08:34:57.570Z,58.45
2022-08-10T08:38:31.828Z,58.49
2022-08-10T08:40:30.153Z,57.86
2022-08-10T08:43:18.111Z,57.48
2022-08-10T08:46:01.123Z,57.39
2022-08-10T08:49:06.135Z,57.54
2022-08-10T08:52:09.199Z,56.32
2022-08-10T08:55:02.895Z,54.64
2022-08-10T08:57:50.895Z,55.29
2022-08-10T09:00:42.130Z,55.26
2022-08-10T09:03:29.611Z,55.42
2022-08-10T09:06:25.825Z,55.28
2022-08-10T09:09:29.999Z,55.24
2022-08-10T09:12:05.806Z,54.68
2022-08-10T09:14:49.116Z,54.55
2022-08-10T09:17:32.535Z,54.13
2022-08-10T09:20:08.275Z,53.61
2022-08-10T09:22:44.846Z,53.53
2022-08-10T09:25:23.553Z,52.93
2022-08-10T09:28:05.394Z,52.95
2022-08-10T09:30:52.383Z,52.84
2022-08-10T09:36:24.978Z,51.82
2022-08-10T09:37:06.531Z,49.82
2022-08-10T09:40:06.667Z,50.00
2022-08-10T09:43:14.285Z,49.21
2022-08-10T09:46:13.272Z,48.51
2022-08-10T09:49:00.960Z,48.81
2022-08-10T09:51:50.741Z,48.14
2022-08-10T09:54:42.398Z,47.95
2022-08-10T09:57:43.358Z,47.54
2022-08-10T10:00:14.374Z,47.66
2022-08-10T10:03:00.008Z,46.03
2022-08-10T10:05:52.575Z,45.65
2022-08-10T10:08:43.060Z,44.59
2022-08-10T10:11:17.808Z,46.07
2022-08-10T10:14:03.378Z,46.10
2022-08-10T10:16:57.735Z,46.94
2022-08-10T10:20:02.846Z,46.52
2022-08-10T10:22:42.621Z,45.61
2022-08-10T10:25:50.016Z,45.99
2022-08-10T10:28:59.775Z,46.16
2022-08-10T10:31:28.665Z,44.93
2022-08-10T10:34:21.450Z,44.22
2022-08-10T10:36:51.470Z,42.91
2022-08-10T10:39:24.152Z,42.71
2022-08-10T10:42:35.042Z,40.09
2022-08-10T10:45:20.720Z,39.41
2022-08-10T10:48:24.254Z,36.71
2022-08-10T10:51:19.012Z,34.89
2022-08-10T10:54:10.458Z,30.24
2022-08-10T10:56:58.126Z,27.46
2022-08-10T10:59:55.051Z,25.88
2022-08-10T11:02:41.882Z,23.26
2022-08-10T11:05:37.803Z,23.27
2022-08-10T11:08:14.672Z,21.46
2022-08-10T11:10:52.649Z,18.64
2022-08-10T11:14:25.726Z,18.16
2022-08-10T11:16:38.605Z,18.75
2022-08-10T11:19:17.606Z,17.82
2022-08-10T11:22:15.910Z,17.59
2022-08-10T11:24:58.515Z,17.11
2022-08-10T11:27:27.706Z,14.50
2022-08-10T11:30:12.664Z,15.97
2022-08-10T11:33:30.729Z,15.85
2022-08-10T11:36:56.331Z,15.76
2022-08-10T11:39:31.532Z,14.53
2022-08-10T11:42:26.575Z,14.74
2022-08-10T11:45:10.068Z,14.24
2022-08-10T11:47:47.403Z,13.93
2022-08-10T11:50:34.805Z,13.41
2022-08-10T11:53:17.448Z,13.31
2022-08-10T11:55:49.292Z,12.78
2022-08-10T11:58:36.151Z,12.68
2022-08-10T12:01:06.496Z,11.85
2022-08-10T12:03:36.413Z,12.11
2022-08-10T12:06:05.911Z,12.21
2022-08-10T12:10:03.550Z,11.73
2022-08-10T12:11:26.388Z,11.61
2022-08-10T12:14:22.599Z,11.48
2022-08-10T12:17:01.930Z,10.86
2022-08-10T12:20:02.344Z,10.34
2022-08-10T12:22:59.839Z,10.83
2022-08-10T12:25:55.724Z,10.51
2022-08-10T12:28:49.893Z,10.69
2022-08-10T12:31:23.144Z,9.83
2022-08-10T12:34:01.800Z,9.79
2022-08-10T12:36:39.643Z,9.87
2022-08-10T12:39:14.766Z,10.21
2022-08-10T12:42:02.804Z,10.71
2022-08-10T12:44:42.231Z,11.89
2022-08-10T12:47:24.376Z,13.31
2022-08-10T12:50:26.726Z,14.62
2022-08-10T12:53:41.049Z,14.51
2022-08-10T12:56:07.770Z,15.79
2022-08-10T12:58:59.928Z,14.99
2022-08-10T13:02:09.597Z,14.42
2022-08-10T13:04:22.757Z,13.39
2022-08-10T13:06:51.509Z,13.59
2022-08-10T13:09:25.210Z,12.37
2022-08-10T13:12:35.625Z,11.43
2022-08-10T13:15:45.946Z,12.41
2022-08-10T13:18:02.899Z,14.03
2022-08-10T13:20:35.183Z,15.39
2022-08-10T13:23:09.991Z,16.76
2022-08-10T13:25:39.136Z,17.86
2022-08-10T13:28:36.879Z,18.78
2022-08-10T13:31:03.501Z,20.13
2022-08-10T13:34:39.683Z,20.63
2022-08-10T13:36:28.589Z,21.78
2022-08-10T13:38:57.130Z,22.31
2022-08-10T13:41:34.951Z,22.53
2022-08-10T13:44:01.736Z,23.15
2022-08-10T13:46:29.125Z,23.35
2022-08-10T13:48:59.864Z,23.84
2022-08-10T13:51:53.641Z,25.08
2022-08-10T13:54:17.331Z,26.04
2022-08-10T13:56:47.300Z,25.99
2022-08-10T13:59:16.486Z,25.75
2022-08-10T14:01:49.459Z,26.10
2022-08-10T14:04:18.110Z,26.69
2022-08-10T14:06:53.024Z,27.13
2022-08-10T14:09:24.818Z,27.46
2022-08-10T14:11:53.858Z,27.67
2022-08-10T14:14:21.808Z,27.99
2022-08-10T14:16:49.787Z,28.05
2022-08-10T14:19:21.146Z,28.78
2022-08-10T14:21:49.131Z,28.94
2022-08-10T14:24:26.315Z,29.08
2022-08-10T14:27:11.764Z,28.89
2022-08-10T14:29:47.862Z,29.05
2022-08-10T14:32:17.733Z,29.51
2022-08-10T14:36:16.786Z,29.90
2022-08-10T14:37:39.483Z,29.69
2022-08-10T14:40:20.996Z,29.55
2022-08-10T14:42:53.828Z,30.00
2022-08-10T14:45:28.406Z,30.54
2022-08-10T14:48:17.261Z,30.42
2022-08-10T14:50:55.442Z,31.01
2022-08-10T14:53:27.000Z,30.78
2022-08-10T14:56:00.979Z,30.33
2022-08-10T14:58:38.537Z,30.76
2022-08-10T15:01:06.943Z,30.57
2022-08-10T15:03:59.145Z,30.71
2022-08-10T15:06:30.258Z,30.77
2022-08-10T15:09:31.235Z,30.81
2022-08-10T15:12:21.827Z,31.39
2022-08-10T15:14:58.294Z,31.18
2022-08-10T15:17:35.187Z,31.32
2022-08-10T15:20:14.836Z,31.34
2022-08-10T15:22:47.062Z,31.55
2022-08-10T15:25:24.809Z,32.53
2022-08-10T15:28:05.071Z,31.85
2022-08-10T15:30:39.603Z,32.19
2022-08-10T15:33:57.063Z,32.11
2022-08-10T15:36:37.426Z,31.93
2022-08-10T15:40:25.764Z,32.36
2022-08-10T15:42:17.374Z,32.68
2022-08-10T15:44:46.178Z,32.87
2022-08-10T15:47:24.446Z,32.90
2022-08-10T15:50:04.391Z,33.09
2022-08-10T15:53:02.138Z,33.25
2022-08-10T15:55:43.191Z,33.15
2022-08-10T15:58:19.817Z,33.15
2022-08-10T16:00:55.496Z,33.31
2022-08-10T16:03:29.549Z,33.44
2022-08-10T16:06:01.658Z,34.01
2022-08-10T16:08:56.115Z,33.71
2022-08-10T16:11:42.877Z,33.84
2022-08-10T16:14:13.416Z,33.85
2022-08-10T16:16:41.865Z,34.06
2022-08-10T16:19:23.890Z,34.34
2022-08-10T16:22:02.720Z,33.97
2022-08-10T16:24:50.418Z,33.81
2022-08-10T16:27:26.406Z,33.96
2022-08-10T16:30:02.176Z,34.08
2022-08-10T16:32:30.661Z,34.13
2022-08-10T16:34:59.280Z,34.45
2022-08-10T16:37:56.580Z,34.32
2022-08-10T16:40:26.739Z,34.62
2022-08-10T16:42:53.931Z,35.14
2022-08-10T16:45:34.540Z,34.62
2022-08-10T16:48:02.050Z,34.77
2022-08-10T16:50:37.513Z,35.12
2022-08-10T16:53:06.904Z,35.09
2022-08-10T16:55:49.383Z,35.27
2022-08-10T16:58:27.484Z,35.71
2022-08-10T17:01:02.033Z,34.63
2022-08-10T17:04:08.087Z,35.60
2022-08-10T17:06:31.707Z,35.25
2022-08-10T17:09:01.224Z,35.35
2022-08-10T17:11:30.897Z,35.89
2022-08-10T17:13:59.252Z,35.36
2022-08-10T17:16:32.556Z,35.25
2022-08-10T17:18:59.755Z,35.36
2022-08-10T17:21:34.911Z,35.39
2022-08-10T17:24:03.804Z,35.19
2022-08-10T17:26:37.495Z,35.46
2022-08-10T17:29:58.886Z,35.73
2022-08-10T17:32:17.792Z,36.19
2022-08-10T17:34:51.704Z,36.04
2022-08-10T17:37:22.416Z,36.06
2022-08-10T17:39:59.489Z,36.78
2022-08-10T17:42:27.247Z,36.71
2022-08-10T17:44:55.174Z,36.94
2022-08-10T17:47:27.089Z,36.51
2022-08-10T17:49:58.341Z,36.39
2022-08-10T17:52:28.914Z,36.98
2022-08-10T17:55:00.704Z,37.19
2022-08-10T17:57:28.669Z,37.30
2022-08-10T18:00:00.736Z,37.22
2022-08-10T18:02:28.770Z,37.97
2022-08-10T18:04:58.596Z,37.90
2022-08-10T18:07:40.765Z,37.63
2022-08-10T18:10:09.891Z,38.02
2022-08-10T18:12:46.255Z,38.26
2022-08-10T18:15:16.335Z,38.35
2022-08-10T18:17:51.081Z,38.69
2022-08-10T18:20:27.840Z,39.08
2022-08-10T18:22:57.645Z,39.17
2022-08-10T18:25:38.475Z,39.57
2022-08-10T18:28:18.107Z,39.44
2022-08-10T18:30:52.564Z,39.44
2022-08-10T18:33:25.571Z,39.87
2022-08-10T18:35:53.324Z,39.92
2022-08-10T18:38:24.553Z,40.07
2022-08-10T18:40:56.851Z,40.42
2022-08-10T18:44:09.943Z,40.73
2022-08-10T18:46:21.555Z,40.70
2022-08-10T18:49:06.658Z,41.15
2022-08-10T18:51:46.688Z,40.85
2022-08-10T18:54:31.233Z,41.15
2022-08-10T18:57:23.725Z,41.12
2022-08-10T19:00:07.415Z,41.64
2022-08-10T19:02:44.788Z,42.26
2022-08-10T19:05:32.537Z,42.21
2022-08-10T19:08:27.110Z,42.18
2022-08-10T19:11:10.227Z,42.08
2022-08-10T19:14:02.670Z,42.41
2022-08-10T19:17:10.243Z,42.53
2022-08-10T19:19:50.631Z,43.23
2022-08-10T19:22:26.665Z,42.87
2022-08-10T19:26:41.622Z,43.65
2022-08-10T19:28:14.373Z,43.91
2022-08-10T19:30:57.574Z,43.59
2022-08-10T19:33:49.306Z,43.92
2022-08-10T19:36:44.728Z,43.98
2022-08-10T19:39:50.822Z,44.33
2022-08-10T19:42:48.434Z,44.54
2022-08-10T19:46:01.421Z,44.56
2022-08-10T19:48:52.507Z,44.88
2022-08-10T19:52:07.422Z,45.06
2022-08-10T19:55:09.014Z,45.20
2022-08-10T19:58:09.912Z,45.42
2022-08-10T20:01:03.876Z,45.22
2022-08-10T20:03:44.115Z,45.70
2022-08-10T20:06:20.421Z,45.63
2022-08-10T20:08:59.635Z,45.81
2022-08-10T20:11:46.087Z,45.91
2022-08-10T20:14:22.236Z,46.00
2022-08-10T20:17:03.396Z,45.94
2022-08-10T20:23:00.180Z,46.17
2022-08-10T20:25:45.132Z,46.20
2022-08-10T20:28:39.372Z,46.05
2022-08-10T20:31:11.513Z,46.16
2022-08-10T20:34:00.753Z,46.54
2022-08-10T20:36:49.440Z,46.61
2022-08-10T20:39:46.355Z,46.72
2022-08-10T20:43:05.226Z,46.59
2022-08-10T20:46:08.457Z,46.58
2022-08-10T20:48:55.068Z,46.74
2022-08-10T20:51:58.528Z,47.10
2022-08-10T20:54:17.901Z,47.07
2022-08-10T20:57:00.726Z,47.42
2022-08-10T20:59:33.482Z,47.36
2022-08-10T21:02:34.272Z,47.66
2022-08-10T21:05:18.247Z,47.70
2022-08-10T21:08:01.834Z,48.01
2022-08-10T21:10:56.117Z,47.84
2022-08-10T21:13:50.920Z,47.89
2022-08-10T21:16:28.629Z,48.32
2022-08-10T21:19:32.871Z,48.29
2022-08-10T21:22:16.604Z,47.91
2022-08-10T21:24:56.661Z,48.38
2022-08-10T21:27:41.070Z,48.49
2022-08-10T21:30:20.528Z,48.33
2022-08-10T21:33:02.609Z,48.43
2022-08-10T21:35:44.410Z,48.55
2022-08-10T21:38:28.592Z,48.76
2022-08-10T21:41:57.979Z,48.86
2022-08-10T21:45:08.192Z,48.92
2022-08-10T21:48:30.475Z,49.25
2022-08-10T21:51:23.944Z,49.36
2022-08-10T21:54:29.457Z,49.15
2022-08-10T21:57:43.563Z,49.16
2022-08-10T22:00:32.536Z,49.28
2022-08-10T22:03:22.212Z,49.46
2022-08-10T22:06:11.147Z,49.66
2022-08-10T22:09:00.764Z,49.50
2022-08-10T22:11:50.214Z,49.68
2022-08-10T22:14:51.242Z,49.85
2022-08-10T22:18:03.874Z,50.09
2022-08-10T22:20:50.293Z,50.15
2022-08-10T22:23:41.345Z,49.98
2022-08-10T22:26:56.533Z,50.23
2022-08-10T22:29:56.291Z,50.16
2022-08-10T22:33:34.209Z,50.32
2022-08-10T22:36:44.885Z,50.35
2022-08-10T22:40:11.512Z,50.42
2022-08-10T22:42:58.822Z,50.47
2022-08-10T22:45:56.531Z,50.70
2022-08-10T22:48:41.478Z,50.68
2022-08-10T22:51:22.959Z,50.97
2022-08-10T22:54:30.600Z,51.15
2022-08-10T22:57:18.527Z,51.19
2022-08-10T22:59:45.463Z,51.27
2022-08-10T23:02:21.805Z,51.28
2022-08-10T23:04:52.387Z,51.63
2022-08-10T23:07:21.602Z,51.55
2022-08-10T23:09:57.262Z,51.69
2022-08-10T23:12:51.286Z,51.90
2022-08-10T23:15:58.698Z,51.99
2022-08-10T23:18:53.159Z,52.05
2022-08-10T23:21:22.733Z,52.40
2022-08-10T23:23:53.527Z,52.35
2022-08-10T23:26:28.806Z,52.39
2022-08-10T23:29:09.575Z,52.08
2022-08-10T23:31:57.637Z,52.56
2022-08-10T23:34:31.193Z,52.36
2022-08-10T23:37:00.862Z,52.46
2022-08-10T23:39:38.059Z,52.94
2022-08-10T23:42:08.498Z,52.80
2022-08-10T23:44:40.394Z,53.05
2022-08-10T23:47:08.477Z,52.96
2022-08-10T23:49:36.828Z,53.09
2022-08-10T23:52:13.163Z,53.12
2022-08-10T23:54:55.930Z,53.31
2022-08-10T23:57:25.069Z,53.44
2022-08-10T23:59:57.468Z,53.27
